Hundvaag 1 weather for Oct 1996
Month no. 112
Obs.
Da.
Temp. Dew Point Precip. Wind
Speed
Wind gusts Cloud cover Press. Humidity Wind dir. Sunny OPT
01.10.1996 9,6   11,0     0       1  
02.10.1996 7,8   4,0     0          
03.10.1996 8,5   9,0     0       1  
04.10.1996 8,7   59,0     5       1  
05.10.1996 7,9   24,0     1          
06.10.1996 9,9   4,0     0          
07.10.1996 12,3   9,0     0          
08.10.1996 8,9   3,0     1       1  
09.10.1996 8,7   0,0     0          
10.10.1996 7,9   3,0     0          
11.10.1996 7,7   4,0     0          
12.10.1996 11,0   10,0     0          
13.10.1996 9,5   36,0     0          
14.10.1996 9,8   0,0     0          
15.10.1996 12,5   0,0     0          
16.10.1996 13,0   0,0     0          
17.10.1996 9,5   3,0     0       1  
18.10.1996 6,0   0,0     10          
19.10.1996 10,8   0,0     1          
20.10.1996 8,0   20,0     10       1  
21.10.1996 8,7   1,0     0          
22.10.1996 7,8   19,0     10          
23.10.1996 8,2   0,0     1          
24.10.1996 10,4   0,0     1          
25.10.1996 10,6   0,0     0          
26.10.1996 10,0   1,0     1          
27.10.1996 9,4   18,0     2          
28.10.1996 8,9   16,0     0          
29.10.1996 8,8   26,0     0          
30.10.1996 5,6   0,0     4          
31.10.1996 6,6   14,0     0          
Avrg/Sum 9,1   294,0     1,5       6